sensor_id;sensor_type;location;lat;lon;timestamp;P1;durP1;ratioP1;P2;durP2;ratioP2
69185;SDS011;56298;49.246;9.410;2024-01-16T00:01:07;17.77;;;15.83;;
69185;SDS011;56298;49.246;9.410;2024-01-16T00:03:33;17.10;;;14.75;;
69185;SDS011;56298;49.246;9.410;2024-01-16T00:06:00;17.53;;;15.43;;
69185;SDS011;56298;49.246;9.410;2024-01-16T00:08:25;15.88;;;14.18;;
69185;SDS011;56298;49.246;9.410;2024-01-16T00:10:51;17.65;;;15.70;;
69185;SDS011;56298;49.246;9.410;2024-01-16T00:13:16;18.17;;;15.87;;
69185;SDS011;56298;49.246;9.410;2024-01-16T00:15:42;17.07;;;13.93;;
69185;SDS011;56298;49.246;9.410;2024-01-16T00:18:07;19.60;;;15.13;;
69185;SDS011;56298;49.246;9.410;2024-01-16T00:20:33;17.48;;;15.68;;
69185;SDS011;56298;49.246;9.410;2024-01-16T00:22:59;16.77;;;15.07;;
69185;SDS011;56298;49.246;9.410;2024-01-16T00:25:24;17.07;;;15.27;;
69185;SDS011;56298;49.246;9.410;2024-01-16T00:27:50;18.23;;;15.27;;
69185;SDS011;56298;49.246;9.410;2024-01-16T00:30:15;16.27;;;14.17;;
69185;SDS011;56298;49.246;9.410;2024-01-16T00:32:41;17.17;;;15.37;;
69185;SDS011;56298;49.246;9.410;2024-01-16T00:35:06;17.10;;;15.40;;
69185;SDS011;56298;49.246;9.410;2024-01-16T00:37:32;18.25;;;16.30;;
69185;SDS011;56298;49.246;9.410;2024-01-16T00:39:57;18.53;;;16.57;;
69185;SDS011;56298;49.246;9.410;2024-01-16T00:42:22;16.33;;;14.60;;
69185;SDS011;56298;49.246;9.410;2024-01-16T00:44:48;17.20;;;15.40;;
69185;SDS011;56298;49.246;9.410;2024-01-16T00:47:13;18.27;;;16.20;;
69185;SDS011;56298;49.246;9.410;2024-01-16T00:49:38;16.93;;;15.23;;
69185;SDS011;56298;49.246;9.410;2024-01-16T00:52:03;18.13;;;16.27;;
69185;SDS011;56298;49.246;9.410;2024-01-16T00:54:29;17.23;;;15.27;;
69185;SDS011;56298;49.246;9.410;2024-01-16T00:56:54;17.03;;;15.33;;
69185;SDS011;56298;49.246;9.410;2024-01-16T00:59:24;18.20;;;16.30;;
69185;SDS011;56298;49.246;9.410;2024-01-16T01:01:50;18.52;;;16.67;;
69185;SDS011;56298;49.246;9.410;2024-01-16T01:04:15;17.23;;;15.10;;
69185;SDS011;56298;49.246;9.410;2024-01-16T01:06:40;25.93;;;20.50;;
69185;SDS011;56298;49.246;9.410;2024-01-16T01:09:06;20.60;;;17.83;;
69185;SDS011;56298;49.246;9.410;2024-01-16T01:11:31;17.23;;;15.47;;
69185;SDS011;56298;49.246;9.410;2024-01-16T01:13:56;17.63;;;15.73;;
69185;SDS011;56298;49.246;9.410;2024-01-16T01:16:22;17.13;;;15.13;;
69185;SDS011;56298;49.246;9.410;2024-01-16T01:18:47;15.40;;;13.80;;
69185;SDS011;56298;49.246;9.410;2024-01-16T01:21:12;18.57;;;14.77;;
69185;SDS011;56298;49.246;9.410;2024-01-16T01:23:37;16.77;;;14.87;;
69185;SDS011;56298;49.246;9.410;2024-01-16T01:26:03;17.77;;;15.87;;
69185;SDS011;56298;49.246;9.410;2024-01-16T01:28:29;17.70;;;15.90;;
69185;SDS011;56298;49.246;9.410;2024-01-16T01:30:54;17.00;;;15.30;;
69185;SDS011;56298;49.246;9.410;2024-01-16T01:33:20;17.37;;;15.60;;
69185;SDS011;56298;49.246;9.410;2024-01-16T01:35:45;17.98;;;16.08;;
69185;SDS011;56298;49.246;9.410;2024-01-16T01:38:10;18.00;;;16.10;;
69185;SDS011;56298;49.246;9.410;2024-01-16T01:40:35;18.27;;;14.90;;
69185;SDS011;56298;49.246;9.410;2024-01-16T01:43:20;18.37;;;16.47;;
69185;SDS011;56298;49.246;9.410;2024-01-16T01:48:34;17.80;;;16.05;;
69185;SDS011;56298;49.246;9.410;2024-01-16T01:51:02;16.92;;;15.23;;
69185;SDS011;56298;49.246;9.410;2024-01-16T01:53:46;17.77;;;16.17;;
69185;SDS011;56298;49.246;9.410;2024-01-16T01:56:14;17.55;;;15.75;;
69185;SDS011;56298;49.246;9.410;2024-01-16T01:58:42;18.00;;;16.10;;
69185;SDS011;56298;49.246;9.410;2024-01-16T02:01:09;16.40;;;14.70;;
69185;SDS011;56298;49.246;9.410;2024-01-16T02:03:39;17.38;;;15.68;;
69185;SDS011;56298;49.246;9.410;2024-01-16T02:06:07;17.87;;;16.00;;
69185;SDS011;56298;49.246;9.410;2024-01-16T02:08:32;16.87;;;15.03;;
69185;SDS011;56298;49.246;9.410;2024-01-16T02:10:58;18.43;;;16.57;;
69185;SDS011;56298;49.246;9.410;2024-01-16T02:13:23;17.17;;;15.43;;
69185;SDS011;56298;49.246;9.410;2024-01-16T02:15:49;18.17;;;16.10;;
69185;SDS011;56298;49.246;9.410;2024-01-16T02:18:15;18.42;;;16.48;;
69185;SDS011;56298;49.246;9.410;2024-01-16T02:20:41;17.17;;;15.40;;
69185;SDS011;56298;49.246;9.410;2024-01-16T02:23:07;18.08;;;16.27;;
69185;SDS011;56298;49.246;9.410;2024-01-16T02:25:32;17.20;;;15.33;;
69185;SDS011;56298;49.246;9.410;2024-01-16T02:27:59;17.20;;;15.53;;
69185;SDS011;56298;49.246;9.410;2024-01-16T02:30:25;18.13;;;16.33;;
69185;SDS011;56298;49.246;9.410;2024-01-16T02:32:50;17.50;;;15.70;;
69185;SDS011;56298;49.246;9.410;2024-01-16T02:35:16;18.97;;;17.03;;
69185;SDS011;56298;49.246;9.410;2024-01-16T02:37:42;19.00;;;16.93;;
69185;SDS011;56298;49.246;9.410;2024-01-16T02:40:07;18.00;;;16.27;;
69185;SDS011;56298;49.246;9.410;2024-01-16T02:42:34;19.55;;;17.75;;
69185;SDS011;56298;49.246;9.410;2024-01-16T02:45:01;18.38;;;16.48;;
69185;SDS011;56298;49.246;9.410;2024-01-16T02:47:26;18.40;;;16.55;;
69185;SDS011;56298;49.246;9.410;2024-01-16T02:49:52;16.97;;;15.23;;
69185;SDS011;56298;49.246;9.410;2024-01-16T02:52:17;18.33;;;16.15;;
69185;SDS011;56298;49.246;9.410;2024-01-16T02:54:43;18.03;;;16.33;;
69185;SDS011;56298;49.246;9.410;2024-01-16T02:57:09;18.20;;;16.40;;
69185;SDS011;56298;49.246;9.410;2024-01-16T02:59:34;18.50;;;16.63;;
69185;SDS011;56298;49.246;9.410;2024-01-16T03:02:00;18.23;;;16.47;;
69185;SDS011;56298;49.246;9.410;2024-01-16T03:04:25;18.47;;;16.60;;
69185;SDS011;56298;49.246;9.410;2024-01-16T03:06:50;19.10;;;17.13;;
69185;SDS011;56298;49.246;9.410;2024-01-16T03:09:16;17.60;;;15.73;;
69185;SDS011;56298;49.246;9.410;2024-01-16T03:11:41;17.10;;;15.30;;
69185;SDS011;56298;49.246;9.410;2024-01-16T03:14:06;19.47;;;17.47;;
69185;SDS011;56298;49.246;9.410;2024-01-16T03:16:31;19.50;;;17.40;;
69185;SDS011;56298;49.246;9.410;2024-01-16T03:18:57;18.70;;;16.80;;
69185;SDS011;56298;49.246;9.410;2024-01-16T03:21:22;19.07;;;17.20;;
69185;SDS011;56298;49.246;9.410;2024-01-16T03:23:48;17.60;;;15.83;;
69185;SDS011;56298;49.246;9.410;2024-01-16T03:26:13;18.47;;;16.57;;
69185;SDS011;56298;49.246;9.410;2024-01-16T03:28:39;18.67;;;16.80;;
69185;SDS011;56298;49.246;9.410;2024-01-16T03:31:05;18.10;;;15.68;;
69185;SDS011;56298;49.246;9.410;2024-01-16T03:33:31;17.23;;;15.40;;
69185;SDS011;56298;49.246;9.410;2024-01-16T03:35:56;17.83;;;15.97;;
69185;SDS011;56298;49.246;9.410;2024-01-16T03:38:21;18.53;;;16.63;;
69185;SDS011;56298;49.246;9.410;2024-01-16T03:40:46;17.80;;;14.67;;
69185;SDS011;56298;49.246;9.410;2024-01-16T03:43:12;20.07;;;18.00;;
69185;SDS011;56298;49.246;9.410;2024-01-16T03:45:37;18.33;;;16.37;;
69185;SDS011;56298;49.246;9.410;2024-01-16T03:48:02;18.63;;;16.73;;
69185;SDS011;56298;49.246;9.410;2024-01-16T03:50:28;19.92;;;16.85;;
69185;SDS011;56298;49.246;9.410;2024-01-16T03:52:53;17.93;;;16.07;;
69185;SDS011;56298;49.246;9.410;2024-01-16T03:55:18;17.80;;;15.50;;
69185;SDS011;56298;49.246;9.410;2024-01-16T03:57:44;17.27;;;15.40;;
69185;SDS011;56298;49.246;9.410;2024-01-16T04:00:11;17.07;;;15.13;;
69185;SDS011;56298;49.246;9.410;2024-01-16T04:02:37;18.35;;;16.45;;
69185;SDS011;56298;49.246;9.410;2024-01-16T04:05:03;18.50;;;16.50;;
69185;SDS011;56298;49.246;9.410;2024-01-16T04:07:28;18.45;;;16.63;;
69185;SDS011;56298;49.246;9.410;2024-01-16T04:09:54;15.97;;;14.27;;
69185;SDS011;56298;49.246;9.410;2024-01-16T04:12:19;19.23;;;15.60;;
69185;SDS011;56298;49.246;9.410;2024-01-16T04:14:44;17.70;;;14.67;;
69185;SDS011;56298;49.246;9.410;2024-01-16T04:17:09;17.17;;;15.30;;
69185;SDS011;56298;49.246;9.410;2024-01-16T04:19:35;18.20;;;16.30;;
69185;SDS011;56298;49.246;9.410;2024-01-16T04:22:00;17.40;;;15.43;;
69185;SDS011;56298;49.246;9.410;2024-01-16T04:24:26;19.40;;;17.30;;
69185;SDS011;56298;49.246;9.410;2024-01-16T04:26:52;20.73;;;16.55;;
69185;SDS011;56298;49.246;9.410;2024-01-16T04:29:17;20.53;;;17.57;;
69185;SDS011;56298;49.246;9.410;2024-01-16T04:31:42;19.30;;;15.67;;
69185;SDS011;56298;49.246;9.410;2024-01-16T04:34:08;18.60;;;15.93;;
69185;SDS011;56298;49.246;9.410;2024-01-16T04:36:33;17.30;;;15.50;;
69185;SDS011;56298;49.246;9.410;2024-01-16T04:38:58;17.10;;;15.17;;
69185;SDS011;56298;49.246;9.410;2024-01-16T04:41:24;20.83;;;17.70;;
69185;SDS011;56298;49.246;9.410;2024-01-16T04:43:49;20.53;;;18.13;;
69185;SDS011;56298;49.246;9.410;2024-01-16T04:46:17;23.10;;;18.05;;
69185;SDS011;56298;49.246;9.410;2024-01-16T04:48:43;24.57;;;18.50;;
69185;SDS011;56298;49.246;9.410;2024-01-16T04:51:08;25.10;;;19.77;;
69185;SDS011;56298;49.246;9.410;2024-01-16T04:53:34;21.63;;;17.27;;
69185;SDS011;56298;49.246;9.410;2024-01-16T04:55:59;21.45;;;17.73;;
69185;SDS011;56298;49.246;9.410;2024-01-16T04:58:24;20.40;;;17.47;;
69185;SDS011;56298;49.246;9.410;2024-01-16T05:00:50;29.80;;;21.77;;
69185;SDS011;56298;49.246;9.410;2024-01-16T05:03:15;19.77;;;16.93;;
69185;SDS011;56298;49.246;9.410;2024-01-16T05:05:41;106.30;;;53.77;;
69185;SDS011;56298;49.246;9.410;2024-01-16T05:08:06;28.37;;;20.97;;
69185;SDS011;56298;49.246;9.410;2024-01-16T05:10:31;24.07;;;19.20;;
69185;SDS011;56298;49.246;9.410;2024-01-16T05:12:57;23.70;;;17.17;;
69185;SDS011;56298;49.246;9.410;2024-01-16T05:15:22;34.57;;;22.57;;
69185;SDS011;56298;49.246;9.410;2024-01-16T05:17:47;28.07;;;21.83;;
69185;SDS011;56298;49.246;9.410;2024-01-16T05:20:12;26.23;;;18.83;;
69185;SDS011;56298;49.246;9.410;2024-01-16T05:22:38;18.50;;;16.33;;
69185;SDS011;56298;49.246;9.410;2024-01-16T05:25:04;21.57;;;19.20;;
69185;SDS011;56298;49.246;9.410;2024-01-16T05:27:29;31.97;;;24.60;;
69185;SDS011;56298;49.246;9.410;2024-01-16T05:29:55;31.30;;;23.07;;
69185;SDS011;56298;49.246;9.410;2024-01-16T05:32:20;23.57;;;18.80;;
69185;SDS011;56298;49.246;9.410;2024-01-16T05:34:45;21.70;;;18.40;;
69185;SDS011;56298;49.246;9.410;2024-01-16T05:37:10;17.97;;;16.07;;
69185;SDS011;56298;49.246;9.410;2024-01-16T05:39:36;21.52;;;17.85;;
69185;SDS011;56298;49.246;9.410;2024-01-16T05:42:02;28.60;;;23.60;;
69185;SDS011;56298;49.246;9.410;2024-01-16T05:44:27;26.70;;;21.50;;
69185;SDS011;56298;49.246;9.410;2024-01-16T05:46:52;21.40;;;18.07;;
69185;SDS011;56298;49.246;9.410;2024-01-16T05:49:18;27.17;;;20.23;;
69185;SDS011;56298;49.246;9.410;2024-01-16T05:51:43;26.30;;;20.17;;
69185;SDS011;56298;49.246;9.410;2024-01-16T05:54:08;27.17;;;22.13;;
69185;SDS011;56298;49.246;9.410;2024-01-16T05:56:33;19.37;;;17.37;;
69185;SDS011;56298;49.246;9.410;2024-01-16T05:58:59;18.13;;;16.23;;
69185;SDS011;56298;49.246;9.410;2024-01-16T06:01:24;18.80;;;16.80;;
69185;SDS011;56298;49.246;9.410;2024-01-16T06:03:49;18.90;;;16.73;;
69185;SDS011;56298;49.246;9.410;2024-01-16T06:06:15;21.38;;;17.65;;
69185;SDS011;56298;49.246;9.410;2024-01-16T06:08:41;33.92;;;27.30;;
69185;SDS011;56298;49.246;9.410;2024-01-16T06:11:06;33.57;;;26.47;;
69185;SDS011;56298;49.246;9.410;2024-01-16T06:13:32;30.80;;;21.87;;
69185;SDS011;56298;49.246;9.410;2024-01-16T06:15:58;22.67;;;20.07;;
69185;SDS011;56298;49.246;9.410;2024-01-16T06:18:23;19.80;;;17.70;;
69185;SDS011;56298;49.246;9.410;2024-01-16T06:20:48;27.27;;;22.60;;
69185;SDS011;56298;49.246;9.410;2024-01-16T06:23:13;20.93;;;18.83;;
69185;SDS011;56298;49.246;9.410;2024-01-16T06:25:39;21.50;;;19.27;;
69185;SDS011;56298;49.246;9.410;2024-01-16T06:28:04;20.70;;;18.63;;
69185;SDS011;56298;49.246;9.410;2024-01-16T06:30:30;21.07;;;18.87;;
69185;SDS011;56298;49.246;9.410;2024-01-16T06:32:56;21.85;;;18.48;;
69185;SDS011;56298;49.246;9.410;2024-01-16T06:35:22;19.57;;;17.50;;
69185;SDS011;56298;49.246;9.410;2024-01-16T06:37:48;19.48;;;17.50;;
69185;SDS011;56298;49.246;9.410;2024-01-16T06:40:13;20.50;;;17.60;;
69185;SDS011;56298;49.246;9.410;2024-01-16T06:42:39;19.03;;;17.07;;
69185;SDS011;56298;49.246;9.410;2024-01-16T06:45:04;20.40;;;18.37;;
69185;SDS011;56298;49.246;9.410;2024-01-16T06:47:30;21.98;;;19.60;;
69185;SDS011;56298;49.246;9.410;2024-01-16T06:49:56;23.17;;;20.60;;
69185;SDS011;56298;49.246;9.410;2024-01-16T06:52:22;22.27;;;19.80;;
69185;SDS011;56298;49.246;9.410;2024-01-16T06:54:47;22.55;;;19.35;;
69185;SDS011;56298;49.246;9.410;2024-01-16T06:57:13;21.13;;;18.37;;
69185;SDS011;56298;49.246;9.410;2024-01-16T06:59:38;23.60;;;20.93;;
69185;SDS011;56298;49.246;9.410;2024-01-16T07:02:03;20.47;;;17.40;;
69185;SDS011;56298;49.246;9.410;2024-01-16T07:04:29;20.38;;;18.05;;
69185;SDS011;56298;49.246;9.410;2024-01-16T07:06:54;21.97;;;19.60;;
69185;SDS011;56298;49.246;9.410;2024-01-16T07:09:19;22.87;;;19.03;;
69185;SDS011;56298;49.246;9.410;2024-01-16T07:11:46;23.00;;;19.27;;
69185;SDS011;56298;49.246;9.410;2024-01-16T07:14:11;24.97;;;22.27;;
69185;SDS011;56298;49.246;9.410;2024-01-16T07:16:37;27.97;;;24.97;;
69185;SDS011;56298;49.246;9.410;2024-01-16T07:19:02;41.53;;;35.83;;
69185;SDS011;56298;49.246;9.410;2024-01-16T07:21:28;41.47;;;36.87;;
69185;SDS011;56298;49.246;9.410;2024-01-16T07:23:53;31.60;;;28.40;;
69185;SDS011;56298;49.246;9.410;2024-01-16T07:26:19;34.17;;;29.30;;
69185;SDS011;56298;49.246;9.410;2024-01-16T07:28:44;32.43;;;27.97;;
69185;SDS011;56298;49.246;9.410;2024-01-16T07:31:10;27.40;;;22.13;;
69185;SDS011;56298;49.246;9.410;2024-01-16T07:33:36;24.13;;;21.23;;
69185;SDS011;56298;49.246;9.410;2024-01-16T07:36:01;28.33;;;22.73;;
69185;SDS011;56298;49.246;9.410;2024-01-16T07:38:27;28.73;;;23.88;;
69185;SDS011;56298;49.246;9.410;2024-01-16T07:40:52;28.90;;;24.60;;
69185;SDS011;56298;49.246;9.410;2024-01-16T07:43:17;22.27;;;19.87;;
69185;SDS011;56298;49.246;9.410;2024-01-16T07:45:43;21.70;;;19.40;;
69185;SDS011;56298;49.246;9.410;2024-01-16T07:48:08;23.63;;;20.98;;
69185;SDS011;56298;49.246;9.410;2024-01-16T07:50:33;28.37;;;24.30;;
69185;SDS011;56298;49.246;9.410;2024-01-16T07:52:59;26.47;;;23.10;;
69185;SDS011;56298;49.246;9.410;2024-01-16T07:55:24;26.20;;;21.87;;
69185;SDS011;56298;49.246;9.410;2024-01-16T07:57:49;23.57;;;20.93;;
69185;SDS011;56298;49.246;9.410;2024-01-16T08:00:14;22.17;;;19.50;;
69185;SDS011;56298;49.246;9.410;2024-01-16T08:02:40;22.90;;;20.60;;
69185;SDS011;56298;49.246;9.410;2024-01-16T08:05:06;20.25;;;17.50;;
69185;SDS011;56298;49.246;9.410;2024-01-16T08:07:32;20.63;;;18.33;;
69185;SDS011;56298;49.246;9.410;2024-01-16T08:09:57;20.70;;;18.37;;
69185;SDS011;56298;49.246;9.410;2024-01-16T08:12:22;20.83;;;18.73;;
69185;SDS011;56298;49.246;9.410;2024-01-16T08:14:48;21.45;;;19.25;;
69185;SDS011;56298;49.246;9.410;2024-01-16T08:17:13;22.20;;;18.97;;
69185;SDS011;56298;49.246;9.410;2024-01-16T08:19:39;25.17;;;22.53;;
69185;SDS011;56298;49.246;9.410;2024-01-16T08:22:04;24.07;;;21.57;;
69185;SDS011;56298;49.246;9.410;2024-01-16T08:24:29;23.60;;;21.10;;
69185;SDS011;56298;49.246;9.410;2024-01-16T08:26:55;22.27;;;19.98;;
69185;SDS011;56298;49.246;9.410;2024-01-16T08:29:22;21.30;;;19.02;;
69185;SDS011;56298;49.246;9.410;2024-01-16T08:31:48;21.90;;;19.27;;
69185;SDS011;56298;49.246;9.410;2024-01-16T08:34:13;24.90;;;20.40;;
69185;SDS011;56298;49.246;9.410;2024-01-16T08:36:38;33.53;;;25.33;;
69185;SDS011;56298;49.246;9.410;2024-01-16T08:39:05;30.92;;;25.02;;
69185;SDS011;56298;49.246;9.410;2024-01-16T08:41:30;31.23;;;24.53;;
69185;SDS011;56298;49.246;9.410;2024-01-16T08:43:56;26.10;;;19.10;;
69185;SDS011;56298;49.246;9.410;2024-01-16T08:46:21;23.40;;;16.80;;
69185;SDS011;56298;49.246;9.410;2024-01-16T08:48:47;19.08;;;12.75;;
69185;SDS011;56298;49.246;9.410;2024-01-16T08:51:13;20.13;;;10.43;;
69185;SDS011;56298;49.246;9.410;2024-01-16T08:53:39;19.30;;;9.15;;
69185;SDS011;56298;49.246;9.410;2024-01-16T08:56:04;17.20;;;8.00;;
69185;SDS011;56298;49.246;9.410;2024-01-16T08:58:31;15.82;;;7.57;;
69185;SDS011;56298;49.246;9.410;2024-01-16T09:01:00;15.45;;;7.22;;
69185;SDS011;56298;49.246;9.410;2024-01-16T09:03:26;16.33;;;8.77;;
69185;SDS011;56298;49.246;9.410;2024-01-16T09:05:51;23.57;;;12.70;;
69185;SDS011;56298;49.246;9.410;2024-01-16T09:08:16;30.93;;;15.30;;
69185;SDS011;56298;49.246;9.410;2024-01-16T09:10:42;18.63;;;8.27;;
69185;SDS011;56298;49.246;9.410;2024-01-16T09:13:07;20.50;;;11.17;;
69185;SDS011;56298;49.246;9.410;2024-01-16T09:15:32;19.17;;;9.27;;
69185;SDS011;56298;49.246;9.410;2024-01-16T09:17:57;19.87;;;10.63;;
69185;SDS011;56298;49.246;9.410;2024-01-16T09:20:22;17.93;;;8.93;;
69185;SDS011;56298;49.246;9.410;2024-01-16T09:22:48;17.30;;;8.98;;
69185;SDS011;56298;49.246;9.410;2024-01-16T09:25:14;17.53;;;8.30;;
69185;SDS011;56298;49.246;9.410;2024-01-16T09:27:39;17.30;;;8.38;;
69185;SDS011;56298;49.246;9.410;2024-01-16T09:30:05;16.10;;;7.63;;
69185;SDS011;56298;49.246;9.410;2024-01-16T09:32:30;18.13;;;8.80;;
69185;SDS011;56298;49.246;9.410;2024-01-16T09:34:56;20.53;;;9.40;;
69185;SDS011;56298;49.246;9.410;2024-01-16T09:37:24;17.73;;;8.73;;
69185;SDS011;56298;49.246;9.410;2024-01-16T09:39:49;16.43;;;8.00;;
69185;SDS011;56298;49.246;9.410;2024-01-16T09:42:16;16.83;;;8.75;;
69185;SDS011;56298;49.246;9.410;2024-01-16T09:44:42;21.73;;;10.63;;
69185;SDS011;56298;49.246;9.410;2024-01-16T09:47:08;18.93;;;10.50;;
69185;SDS011;56298;49.246;9.410;2024-01-16T09:49:36;19.55;;;10.13;;
69185;SDS011;56298;49.246;9.410;2024-01-16T09:52:01;19.65;;;10.00;;
69185;SDS011;56298;49.246;9.410;2024-01-16T09:54:27;16.23;;;9.60;;
69185;SDS011;56298;49.246;9.410;2024-01-16T09:56:53;17.90;;;9.33;;
69185;SDS011;56298;49.246;9.410;2024-01-16T09:59:22;17.15;;;9.13;;
69185;SDS011;56298;49.246;9.410;2024-01-16T10:01:48;18.92;;;9.20;;
69185;SDS011;56298;49.246;9.410;2024-01-16T10:04:15;18.15;;;10.13;;
69185;SDS011;56298;49.246;9.410;2024-01-16T10:06:40;18.30;;;10.02;;
69185;SDS011;56298;49.246;9.410;2024-01-16T10:09:06;18.50;;;9.10;;
69185;SDS011;56298;49.246;9.410;2024-01-16T10:11:32;18.40;;;9.53;;
69185;SDS011;56298;49.246;9.410;2024-01-16T10:13:58;18.50;;;9.75;;
69185;SDS011;56298;49.246;9.410;2024-01-16T10:16:40;17.70;;;9.73;;
69185;SDS011;56298;49.246;9.410;2024-01-16T10:19:28;18.67;;;9.88;;
69185;SDS011;56298;49.246;9.410;2024-01-16T10:22:06;16.92;;;8.43;;
69185;SDS011;56298;49.246;9.410;2024-01-16T10:24:32;33.00;;;14.27;;
69185;SDS011;56298;49.246;9.410;2024-01-16T10:27:00;30.27;;;13.93;;
69185;SDS011;56298;49.246;9.410;2024-01-16T10:29:27;20.30;;;8.88;;
69185;SDS011;56298;49.246;9.410;2024-01-16T10:31:53;93.53;;;25.67;;
69185;SDS011;56298;49.246;9.410;2024-01-16T10:34:18;240.43;;;78.87;;
69185;SDS011;56298;49.246;9.410;2024-01-16T10:36:51;220.52;;;60.35;;
69185;SDS011;56298;49.246;9.410;2024-01-16T10:39:22;76.13;;;29.80;;
69185;SDS011;56298;49.246;9.410;2024-01-16T10:41:54;23.20;;;10.80;;
69185;SDS011;56298;49.246;9.410;2024-01-16T10:44:21;13.47;;;7.47;;
69185;SDS011;56298;49.246;9.410;2024-01-16T10:46:46;15.37;;;7.10;;
69185;SDS011;56298;49.246;9.410;2024-01-16T10:49:11;11.33;;;5.87;;
69185;SDS011;56298;49.246;9.410;2024-01-16T10:51:37;17.87;;;9.87;;
69185;SDS011;56298;49.246;9.410;2024-01-16T10:54:04;13.35;;;6.43;;
69185;SDS011;56298;49.246;9.410;2024-01-16T10:56:36;11.73;;;4.80;;
69185;SDS011;56298;49.246;9.410;2024-01-16T11:01:49;11.73;;;5.30;;
69185;SDS011;56298;49.246;9.410;2024-01-16T11:04:17;12.70;;;5.43;;
69185;SDS011;56298;49.246;9.410;2024-01-16T11:06:45;12.38;;;5.10;;
69185;SDS011;56298;49.246;9.410;2024-01-16T11:09:31;11.90;;;5.15;;
69185;SDS011;56298;49.246;9.410;2024-01-16T11:12:00;11.45;;;5.00;;
69185;SDS011;56298;49.246;9.410;2024-01-16T11:14:28;11.17;;;4.83;;
69185;SDS011;56298;49.246;9.410;2024-01-16T11:16:57;11.60;;;5.47;;
69185;SDS011;56298;49.246;9.410;2024-01-16T11:19:26;14.13;;;6.10;;
69185;SDS011;56298;49.246;9.410;2024-01-16T11:21:52;11.90;;;5.43;;
69185;SDS011;56298;49.246;9.410;2024-01-16T11:24:18;13.02;;;5.10;;
69185;SDS011;56298;49.246;9.410;2024-01-16T11:26:43;12.23;;;5.43;;
69185;SDS011;56298;49.246;9.410;2024-01-16T11:31:53;11.00;;;5.47;;
69185;SDS011;56298;49.246;9.410;2024-01-16T11:37:09;11.40;;;5.53;;
69185;SDS011;56298;49.246;9.410;2024-01-16T11:39:36;13.07;;;5.40;;
69185;SDS011;56298;49.246;9.410;2024-01-16T11:42:01;12.57;;;5.73;;
69185;SDS011;56298;49.246;9.410;2024-01-16T11:44:41;12.90;;;5.50;;
69185;SDS011;56298;49.246;9.410;2024-01-16T11:47:15;13.85;;;6.20;;
69185;SDS011;56298;49.246;9.410;2024-01-16T11:49:42;11.18;;;5.50;;
69185;SDS011;56298;49.246;9.410;2024-01-16T11:52:08;14.23;;;5.60;;
69185;SDS011;56298;49.246;9.410;2024-01-16T11:54:36;10.55;;;5.05;;
69185;SDS011;56298;49.246;9.410;2024-01-16T12:00:14;14.03;;;5.47;;
69185;SDS011;56298;49.246;9.410;2024-01-16T12:02:23;12.50;;;5.30;;
69185;SDS011;56298;49.246;9.410;2024-01-16T12:04:54;14.07;;;5.10;;
69185;SDS011;56298;49.246;9.410;2024-01-16T12:07:21;13.88;;;5.40;;
69185;SDS011;56298;49.246;9.410;2024-01-16T12:09:47;11.43;;;5.13;;
69185;SDS011;56298;49.246;9.410;2024-01-16T12:12:14;14.23;;;5.50;;
69185;SDS011;56298;49.246;9.410;2024-01-16T12:14:52;11.55;;;5.10;;
69185;SDS011;56298;49.246;9.410;2024-01-16T12:17:20;14.47;;;5.57;;
69185;SDS011;56298;49.246;9.410;2024-01-16T12:19:45;11.67;;;5.23;;
69185;SDS011;56298;49.246;9.410;2024-01-16T12:22:14;12.57;;;5.00;;
69185;SDS011;56298;49.246;9.410;2024-01-16T12:24:41;11.80;;;4.85;;
69185;SDS011;56298;49.246;9.410;2024-01-16T12:27:07;12.25;;;5.28;;
69185;SDS011;56298;49.246;9.410;2024-01-16T12:29:33;12.17;;;5.63;;
69185;SDS011;56298;49.246;9.410;2024-01-16T12:32:07;15.25;;;5.07;;
69185;SDS011;56298;49.246;9.410;2024-01-16T12:34:34;12.50;;;5.05;;
69185;SDS011;56298;49.246;9.410;2024-01-16T12:37:06;10.15;;;4.70;;
69185;SDS011;56298;49.246;9.410;2024-01-16T12:39:35;11.18;;;5.28;;
69185;SDS011;56298;49.246;9.410;2024-01-16T12:42:00;11.10;;;4.87;;
69185;SDS011;56298;49.246;9.410;2024-01-16T12:44:26;12.67;;;5.33;;
69185;SDS011;56298;49.246;9.410;2024-01-16T12:46:55;11.13;;;5.10;;
69185;SDS011;56298;49.246;9.410;2024-01-16T12:49:21;12.17;;;4.50;;
69185;SDS011;56298;49.246;9.410;2024-01-16T12:51:50;11.50;;;4.60;;
69185;SDS011;56298;49.246;9.410;2024-01-16T12:54:16;12.23;;;4.73;;
69185;SDS011;56298;49.246;9.410;2024-01-16T12:56:43;13.10;;;4.80;;
69185;SDS011;56298;49.246;9.410;2024-01-16T12:59:10;11.40;;;4.73;;
69185;SDS011;56298;49.246;9.410;2024-01-16T13:01:38;13.55;;;5.35;;
69185;SDS011;56298;49.246;9.410;2024-01-16T13:04:06;14.63;;;6.60;;
69185;SDS011;56298;49.246;9.410;2024-01-16T13:06:32;12.27;;;6.23;;
69185;SDS011;56298;49.246;9.410;2024-01-16T13:09:07;11.80;;;4.93;;
69185;SDS011;56298;49.246;9.410;2024-01-16T13:11:53;12.57;;;5.13;;
69185;SDS011;56298;49.246;9.410;2024-01-16T13:14:20;14.33;;;5.23;;
69185;SDS011;56298;49.246;9.410;2024-01-16T13:16:47;10.20;;;4.40;;
69185;SDS011;56298;49.246;9.410;2024-01-16T13:19:19;12.63;;;4.90;;
69185;SDS011;56298;49.246;9.410;2024-01-16T13:21:44;11.57;;;4.82;;
69185;SDS011;56298;49.246;9.410;2024-01-16T13:24:10;10.97;;;5.13;;
69185;SDS011;56298;49.246;9.410;2024-01-16T13:26:35;10.93;;;4.80;;
69185;SDS011;56298;49.246;9.410;2024-01-16T13:29:02;12.93;;;5.15;;
69185;SDS011;56298;49.246;9.410;2024-01-16T13:31:42;10.95;;;5.00;;
69185;SDS011;56298;49.246;9.410;2024-01-16T13:34:08;9.70;;;4.50;;
69185;SDS011;56298;49.246;9.410;2024-01-16T13:36:33;11.13;;;4.90;;
69185;SDS011;56298;49.246;9.410;2024-01-16T13:38:59;12.93;;;5.13;;
69185;SDS011;56298;49.246;9.410;2024-01-16T13:41:24;14.90;;;5.23;;
69185;SDS011;56298;49.246;9.410;2024-01-16T13:43:49;12.85;;;5.25;;
69185;SDS011;56298;49.246;9.410;2024-01-16T13:46:15;12.27;;;5.57;;
69185;SDS011;56298;49.246;9.410;2024-01-16T13:48:42;13.85;;;5.80;;
69185;SDS011;56298;49.246;9.410;2024-01-16T13:51:07;15.27;;;6.63;;
69185;SDS011;56298;49.246;9.410;2024-01-16T13:53:33;13.37;;;6.27;;
69185;SDS011;56298;49.246;9.410;2024-01-16T13:56:00;11.83;;;6.10;;
69185;SDS011;56298;49.246;9.410;2024-01-16T13:58:25;16.33;;;6.07;;
69185;SDS011;56298;49.246;9.410;2024-01-16T14:00:51;13.07;;;5.57;;
69185;SDS011;56298;49.246;9.410;2024-01-16T14:03:16;13.47;;;5.80;;
69185;SDS011;56298;49.246;9.410;2024-01-16T14:05:42;14.25;;;5.28;;
69185;SDS011;56298;49.246;9.410;2024-01-16T14:08:08;13.55;;;5.55;;
69185;SDS011;56298;49.246;9.410;2024-01-16T14:10:36;15.25;;;11.48;;
69185;SDS011;56298;49.246;9.410;2024-01-16T14:13:02;16.43;;;13.97;;
69185;SDS011;56298;49.246;9.410;2024-01-16T14:15:29;19.00;;;16.50;;
69185;SDS011;56298;49.246;9.410;2024-01-16T14:17:55;17.80;;;15.93;;
69185;SDS011;56298;49.246;9.410;2024-01-16T14:20:21;17.73;;;14.82;;
69185;SDS011;56298;49.246;9.410;2024-01-16T14:22:52;18.38;;;16.58;;
69185;SDS011;56298;49.246;9.410;2024-01-16T14:25:18;17.83;;;14.98;;
69185;SDS011;56298;49.246;9.410;2024-01-16T14:28:01;17.70;;;15.77;;
69185;SDS011;56298;49.246;9.410;2024-01-16T14:30:34;17.83;;;15.97;;
69185;SDS011;56298;49.246;9.410;2024-01-16T14:32:59;17.13;;;15.17;;
69185;SDS011;56298;49.246;9.410;2024-01-16T14:35:26;17.45;;;15.70;;